Time;durP1;ratioP1;P1;durP2;ratioP2;P2;SDS_P1;SDS_P2;PMS_P1;PMS_P2;Temp;Humidity;BMP_temperature;BMP_pressure;BME280_temperature;BME280_humidity;BME280_pressure;Samples;Min_cycle;Max_cycle;Signal;HPM_P1;HPM_P2
2022/09/07 00:01:32;;;;;;;5.03;0.97;;;20.30;99.90;;;;;;5073737;28;20621;-57
2022/09/07 00:03:59;;;;;;;4.43;1.20;;;20.00;99.90;;;;;;5073715;28;20239;-55
2022/09/07 00:06:26;;;;;;;4.47;1.10;;;19.80;99.90;;;;;;5073711;28;20698;-55
2022/09/07 00:08:54;;;;;;;13.23;1.00;;;19.40;1.00;;;;;;5073667;28;20239;-56
2022/09/07 00:11:21;;;;;;;4.43;0.80;;;19.30;1.00;;;;;;5073688;28;20634;-56
2022/09/07 00:13:49;;;;;;;3.90;0.73;;;19.20;99.90;;;;;;5072892;28;20286;-57
2022/09/07 00:16:17;;;;;;;7.20;1.13;;;19.00;99.90;;;;;;5072695;28;20209;-57
2022/09/07 00:18:44;;;;;;;5.93;1.10;;;18.70;1.00;;;;;;5073824;28;20555;-56
2022/09/07 00:21:11;;;;;;;4.70;1.00;;;18.60;1.00;;;;;;5073408;28;20309;-53
2022/09/07 00:23:39;;;;;;;5.07;1.20;;;18.60;1.00;;;;;;5073463;28;20737;-59
2022/09/07 00:26:11;;;;;;;2.43;0.80;;;18.40;1.00;;;;;;5073221;28;20225;-59
2022/09/07 00:28:38;;;;;;;3.03;1.00;;;18.30;99.90;;;;;;5073256;28;20205;-56
2022/09/07 00:31:09;;;;;;;7.27;1.40;;;18.10;99.90;;;;;;5073301;28;20205;-55
2022/09/07 00:33:36;;;;;;;1.70;0.77;;;18.10;1.00;;;;;;5073303;28;20278;-56
2022/09/07 00:36:04;;;;;;;5.50;1.30;;;18.10;1.00;;;;;;5072873;28;20225;-57
2022/09/07 00:38:30;;;;;;;5.07;1.40;;;18.10;1.00;;;;;;5072961;28;20212;-58
2022/09/07 00:40:57;;;;;;;5.57;1.10;;;18.10;1.00;;;;;;5072986;28;20204;-58
2022/09/07 00:43:34;;;;;;;5.00;1.20;;;18.00;1.00;;;;;;5072961;28;20751;-58
2022/09/07 00:46:01;;;;;;;7.87;1.30;;;18.10;1.00;;;;;;5072774;28;20578;-57
2022/09/07 00:48:33;;;;;;;1.63;1.20;;;18.00;1.00;;;;;;5072902;28;20205;-58
2022/09/07 00:51:03;;;;;;;4.40;1.33;;;18.00;11.90;;;;;;5073236;28;20278;-58
2022/09/07 00:53:32;;;;;;;4.07;1.10;;;18.00;20.90;;;;;;5072479;28;20225;-58
2022/09/07 00:56:01;;;;;;;5.67;1.10;;;17.90;40.00;;;;;;5072771;28;20221;-56
2022/09/07 00:58:28;;;;;;;3.63;1.47;;;17.80;76.40;;;;;;5072754;28;20205;-56
2022/09/07 01:00:56;;;;;;;2.30;1.20;;;17.80;99.90;;;;;;5072905;28;20206;-56
2022/09/07 01:03:27;;;;;;;2.83;1.30;;;17.50;99.90;;;;;;5072695;28;20205;-58
2022/09/07 01:05:59;;;;;;;6.70;1.30;;;17.40;99.90;;;;;;5072484;28;20589;-57
2022/09/07 01:08:25;;;;;;;2.07;1.03;;;17.50;99.90;;;;;;5072319;28;20205;-57
2022/09/07 01:10:52;;;;;;;3.23;1.13;;;17.50;99.90;;;;;;5072681;28;20292;-55
2022/09/07 01:13:19;;;;;;;7.67;1.80;;;17.40;99.90;;;;;;5072298;28;20299;-57
2022/09/07 01:15:59;;;;;;;3.27;1.90;;;17.40;99.90;;;;;;5072308;28;20279;-54
2022/09/07 01:18:37;;;;;;;3.67;1.37;;;17.30;99.90;;;;;;5072115;28;20261;-53
2022/09/07 01:21:26;;;;;;;5.23;1.50;;;17.30;99.90;;;;;;5072481;28;20196;-55
2022/09/07 01:24:34;;;;;;;5.00;1.90;;;17.20;99.90;;;;;;5072264;28;20212;-49
2022/09/07 01:27:39;;;;;;;3.90;1.80;;;17.10;99.90;;;;;;5062093;28;20213;-54
2022/09/07 01:30:07;;;;;;;3.93;1.20;;;17.20;99.90;;;;;;5072122;28;20216;-53
2022/09/07 01:32:58;;;;;;;5.27;1.53;;;17.10;99.90;;;;;;5072165;28;20228;-52
2022/09/07 01:35:34;;;;;;;3.30;1.47;;;17.20;99.90;;;;;;5074634;28;20258;-55
2022/09/07 01:38:08;;;;;;;6.03;1.77;;;17.20;99.90;;;;;;5075359;28;20208;-57
2022/09/07 01:40:43;;;;;;;3.50;0.93;;;17.20;99.90;;;;;;5072713;28;20237;-57
2022/09/07 01:43:16;;;;;;;3.90;1.03;;;17.20;99.90;;;;;;5071996;28;20200;-58
2022/09/07 01:45:44;;;;;;;3.33;1.40;;;17.10;99.90;;;;;;5071956;28;20274;-57
2022/09/07 01:48:15;;;;;;;2.97;1.40;;;17.20;99.90;;;;;;5071937;28;20259;-58
2022/09/07 01:50:47;;;;;;;2.10;1.00;;;17.10;99.90;;;;;;5072099;28;20202;-58
2022/09/07 01:53:18;;;;;;;2.73;1.17;;;17.00;99.90;;;;;;5071695;28;20703;-57
2022/09/07 01:55:49;;;;;;;2.03;1.03;;;17.00;99.90;;;;;;5071802;28;20229;-59
2022/09/07 01:58:22;;;;;;;4.20;1.33;;;17.00;99.90;;;;;;5071366;28;20205;-58
2022/09/07 02:00:54;;;;;;;1.37;0.93;;;17.00;99.90;;;;;;5072134;28;20234;-58
2022/09/07 02:03:28;;;;;;;5.93;1.13;;;17.00;99.90;;;;;;5071896;28;20618;-54
2022/09/07 02:05:59;;;;;;;1.83;1.10;;;17.00;99.90;;;;;;5071574;28;20274;-53
2022/09/07 02:08:29;;;;;;;5.10;1.30;;;17.10;99.90;;;;;;5071736;28;20204;-56
2022/09/07 02:10:59;;;;;;;1.93;1.03;;;17.10;99.90;;;;;;5071791;28;20201;-53
2022/09/07 02:13:34;;;;;;;1.10;1.00;;;17.10;99.90;;;;;;5071795;28;20233;-52
2022/09/07 02:16:04;;;;;;;2.30;0.90;;;17.00;99.90;;;;;;5071645;28;20224;-56
2022/09/07 02:18:35;;;;;;;2.33;1.33;;;17.00;99.90;;;;;;5071655;28;20688;-55
2022/09/07 02:21:04;;;;;;;1.27;1.00;;;17.00;99.90;;;;;;5071784;28;20251;-55
2022/09/07 02:23:37;;;;;;;1.50;1.00;;;17.00;99.90;;;;;;5071834;28;20291;-54
2022/09/07 02:26:07;;;;;;;1.50;1.20;;;17.00;99.90;;;;;;5071633;28;20228;-57
2022/09/07 02:28:37;;;;;;;3.43;1.83;;;17.00;99.90;;;;;;5071893;28;20258;-55
2022/09/07 02:31:04;;;;;;;1.37;1.10;;;16.90;99.90;;;;;;5071456;28;20205;-56
2022/09/07 02:33:32;;;;;;;1.40;1.13;;;16.90;99.90;;;;;;5071427;28;20227;-55
2022/09/07 02:36:00;;;;;;;1.90;1.13;;;16.80;99.90;;;;;;5071105;28;20225;-58
2022/09/07 02:38:27;;;;;;;1.90;1.00;;;16.80;99.90;;;;;;5073676;28;20212;-58
2022/09/07 02:40:57;;;;;;;1.47;1.10;;;16.70;99.90;;;;;;5075591;28;20266;-58
2022/09/07 02:43:25;;;;;;;1.67;1.00;;;16.70;99.90;;;;;;5075212;28;20204;-58
2022/09/07 02:46:15;;;;;;;7.03;1.17;;;16.70;99.90;;;;;;5075076;28;20229;-58
2022/09/07 02:48:48;;;;;;;3.60;1.37;;;16.60;99.90;;;;;;5075444;28;20204;-58
2022/09/07 02:51:21;;;;;;;2.53;1.20;;;16.60;99.90;;;;;;5075300;28;20237;-58
2022/09/07 02:54:05;;;;;;;2.63;1.20;;;16.60;99.90;;;;;;5074835;28;20282;-58
2022/09/07 02:56:50;;;;;;;2.40;1.40;;;16.60;99.90;;;;;;5074868;28;20209;-59
2022/09/07 02:59:32;;;;;;;2.93;1.40;;;16.50;99.90;;;;;;5075071;28;20247;-58
2022/09/07 03:02:07;;;;;;;3.03;1.20;;;16.50;99.90;;;;;;5075253;28;20209;-57
2022/09/07 03:04:43;;;;;;;2.67;1.30;;;16.50;99.90;;;;;;5075285;28;20216;-58
2022/09/07 03:07:13;;;;;;;1.50;1.20;;;16.50;99.90;;;;;;5074761;28;20205;-59
2022/09/07 03:09:44;;;;;;;1.90;1.30;;;16.50;99.90;;;;;;5075316;28;20216;-56
2022/09/07 03:12:11;;;;;;;3.23;1.30;;;16.50;99.90;;;;;;5074917;28;20288;-58
2022/09/07 03:14:40;;;;;;;4.07;1.30;;;16.40;99.90;;;;;;5074812;28;20235;-58
2022/09/07 03:17:08;;;;;;;2.30;1.17;;;16.40;99.90;;;;;;5074515;28;20266;-58
2022/09/07 03:19:36;;;;;;;1.90;1.40;;;16.40;99.90;;;;;;5075100;28;20311;-57
2022/09/07 03:22:02;;;;;;;2.93;1.33;;;16.40;99.90;;;;;;5074938;28;20204;-57
2022/09/07 03:24:29;;;;;;;2.00;1.43;;;16.30;99.90;;;;;;5074867;28;20298;-58
2022/09/07 03:26:56;;;;;;;3.37;1.60;;;16.30;99.90;;;;;;5074511;28;20204;-53
2022/09/07 03:29:23;;;;;;;3.50;1.40;;;16.30;99.90;;;;;;5074802;28;20627;-56
2022/09/07 03:31:49;;;;;;;3.33;1.63;;;16.30;99.90;;;;;;5074808;28;20205;-53
2022/09/07 03:34:17;;;;;;;1.50;1.40;;;16.30;99.90;;;;;;5074294;28;20229;-57
2022/09/07 03:36:44;;;;;;;2.83;1.60;;;16.30;99.90;;;;;;5074314;28;20208;-60
2022/09/07 03:39:12;;;;;;;2.17;1.27;;;16.30;99.90;;;;;;5074383;28;20624;-57
2022/09/07 03:41:39;;;;;;;3.03;1.67;;;16.30;99.90;;;;;;5074130;28;20300;-56
2022/09/07 03:44:07;;;;;;;3.70;1.23;;;16.20;99.90;;;;;;5073983;28;20221;-57
2022/09/07 03:46:34;;;;;;;3.03;1.47;;;16.20;99.90;;;;;;5073901;28;20263;-57
2022/09/07 03:49:00;;;;;;;4.93;1.70;;;16.20;99.90;;;;;;5073184;28;20208;-58
2022/09/07 03:51:28;;;;;;;2.80;1.43;;;16.20;99.90;;;;;;5073670;28;20255;-58
2022/09/07 03:53:56;;;;;;;1.87;1.50;;;16.20;99.90;;;;;;5073932;28;20233;-57
2022/09/07 03:56:24;;;;;;;2.17;1.63;;;16.20;99.90;;;;;;5073538;28;20215;-57
2022/09/07 03:58:51;;;;;;;2.33;1.93;;;16.20;99.90;;;;;;5074005;28;20254;-57
2022/09/07 04:01:20;;;;;;;2.27;1.40;;;16.20;99.90;;;;;;5073860;28;20205;-57
2022/09/07 04:03:47;;;;;;;3.27;1.60;;;16.20;99.90;;;;;;5073929;28;20602;-58
2022/09/07 04:06:15;;;;;;;1.77;1.40;;;16.20;99.90;;;;;;5073627;28;20205;-58
2022/09/07 04:08:44;;;;;;;2.00;1.33;;;16.20;99.90;;;;;;5073760;28;20259;-57
2022/09/07 04:11:13;;;;;;;2.47;1.57;;;16.20;99.90;;;;;;5073568;28;20250;-57
2022/09/07 04:13:40;;;;;;;3.03;1.60;;;16.20;99.90;;;;;;5073318;28;20227;-58
2022/09/07 04:16:12;;;;;;;1.73;1.37;;;16.20;99.90;;;;;;5073520;28;20848;-57
2022/09/07 04:18:39;;;;;;;2.60;1.60;;;16.20;99.90;;;;;;5073899;28;20262;-57
2022/09/07 04:21:06;;;;;;;1.63;1.37;;;16.10;99.90;;;;;;5073539;28;20204;-57
2022/09/07 04:23:34;;;;;;;2.10;1.37;;;16.10;99.90;;;;;;5073583;28;20209;-58
2022/09/07 04:26:01;;;;;;;2.17;1.40;;;16.20;99.90;;;;;;5072906;28;20221;-57
2022/09/07 04:28:28;;;;;;;3.63;1.60;;;16.20;99.90;;;;;;5073118;28;20262;-57
2022/09/07 04:30:55;;;;;;;1.87;1.60;;;16.20;99.90;;;;;;5073401;28;20741;-53
2022/09/07 04:33:21;;;;;;;2.53;1.40;;;16.20;99.90;;;;;;5073515;28;20261;-55
2022/09/07 04:35:48;;;;;;;2.60;1.53;;;16.20;99.90;;;;;;5073213;28;20323;-57
2022/09/07 04:38:17;;;;;;;2.03;1.70;;;16.20;99.90;;;;;;5072990;28;20209;-55
2022/09/07 04:40:43;;;;;;;2.90;2.03;;;16.10;99.90;;;;;;5072855;28;20208;-57
2022/09/07 04:43:12;;;;;;;3.50;1.63;;;16.10;99.90;;;;;;5073357;28;20204;-53
2022/09/07 04:45:39;;;;;;;3.23;1.60;;;16.00;99.90;;;;;;5072953;28;20228;-59
2022/09/07 04:48:06;;;;;;;2.90;1.57;;;16.00;99.90;;;;;;5072948;28;20204;-60
2022/09/07 04:50:33;;;;;;;2.53;1.70;;;16.00;99.90;;;;;;5072920;28;20267;-60
2022/09/07 04:52:59;;;;;;;3.20;1.43;;;16.10;99.90;;;;;;5072925;28;20205;-60
2022/09/07 04:55:26;;;;;;;2.47;1.90;;;16.20;99.90;;;;;;5072287;28;20229;-61
2022/09/07 04:57:53;;;;;;;2.27;1.90;;;16.20;99.90;;;;;;5072700;28;20405;-66
2022/09/07 05:00:21;;;;;;;2.20;1.40;;;16.40;99.90;;;;;;5070320;28;20278;-60
2022/09/07 05:02:47;;;;;;;2.90;1.87;;;16.40;99.90;;;;;;5072173;28;20201;-60
2022/09/07 05:05:14;;;;;;;3.10;1.60;;;16.50;99.90;;;;;;5072094;28;20714;-59
2022/09/07 05:07:41;;;;;;;4.43;1.80;;;16.50;99.90;;;;;;5072878;28;20208;-60
2022/09/07 05:10:08;;;;;;;2.60;1.30;;;16.50;99.90;;;;;;5074068;28;20626;-61
2022/09/07 05:12:35;;;;;;;2.37;1.53;;;16.60;99.90;;;;;;5089251;28;20205;-61
2022/09/07 05:15:01;;;;;;;3.60;1.43;;;16.60;99.90;;;;;;5089896;28;20228;-61
2022/09/07 05:17:29;;;;;;;2.77;1.43;;;16.70;99.90;;;;;;5082226;28;20254;-61
2022/09/07 05:19:56;;;;;;;2.43;1.63;;;16.70;99.90;;;;;;5072844;28;20201;-60
2022/09/07 05:22:23;;;;;;;5.03;1.77;;;16.70;99.90;;;;;;5071862;28;20209;-61
2022/09/07 05:24:50;;;;;;;1.50;1.40;;;16.70;99.90;;;;;;5072046;28;20224;-61
2022/09/07 05:27:17;;;;;;;2.57;1.73;;;16.70;99.90;;;;;;5071513;28;20575;-62
2022/09/07 05:29:43;;;;;;;3.67;1.60;;;16.70;99.90;;;;;;5072161;28;20634;-62
2022/09/07 05:32:10;;;;;;;2.93;1.50;;;16.70;99.90;;;;;;5071609;28;20246;-67
2022/09/07 05:34:38;;;;;;;3.93;1.73;;;16.80;99.90;;;;;;5071758;28;20286;-66
2022/09/07 05:37:06;;;;;;;3.60;1.50;;;16.80;99.90;;;;;;5071194;28;20256;-66
2022/09/07 05:39:33;;;;;;;1.60;1.50;;;16.80;99.90;;;;;;5071889;28;20242;-66
2022/09/07 05:41:59;;;;;;;2.03;1.40;;;16.80;99.90;;;;;;5071712;28;20262;-66
2022/09/07 05:44:26;;;;;;;2.07;1.50;;;16.90;99.90;;;;;;5072099;28;20225;-66
2022/09/07 05:46:52;;;;;;;1.97;1.60;;;16.80;99.90;;;;;;5071967;28;20287;-65
2022/09/07 05:49:19;;;;;;;1.70;1.50;;;16.80;99.90;;;;;;5070977;28;20691;-67
2022/09/07 05:51:47;;;;;;;3.03;1.70;;;16.80;99.90;;;;;;5072435;28;20201;-66
2022/09/07 05:54:14;;;;;;;2.47;1.90;;;16.70;99.90;;;;;;5071377;28;20287;-66
2022/09/07 05:56:41;;;;;;;1.53;1.43;;;16.70;99.90;;;;;;5072384;28;20201;-66
2022/09/07 05:59:07;;;;;;;3.27;1.83;;;16.60;99.90;;;;;;5071753;28;20254;-67
2022/09/07 06:01:35;;;;;;;6.10;1.77;;;16.60;99.90;;;;;;5074815;28;20231;-66
2022/09/07 06:04:02;;;;;;;2.07;1.87;;;16.60;99.90;;;;;;5074201;28;20201;-67
2022/09/07 06:06:28;;;;;;;3.50;1.73;;;16.60;99.90;;;;;;5071411;28;20283;-65
2022/09/07 06:08:57;;;;;;;4.00;2.30;;;16.60;99.90;;;;;;5071557;28;20231;-67
2022/09/07 06:11:25;;;;;;;3.40;2.17;;;16.70;99.90;;;;;;5071777;28;20205;-67
2022/09/07 06:13:52;;;;;;;3.23;2.10;;;16.70;99.90;;;;;;5074060;28;20208;-67
2022/09/07 06:16:19;;;;;;;2.73;2.03;;;16.70;99.90;;;;;;5075580;28;20625;-65
2022/09/07 06:18:48;;;;;;;3.37;2.53;;;16.70;99.90;;;;;;5075410;28;20204;-66
2022/09/07 06:21:16;;;;;;;3.90;2.40;;;16.80;99.90;;;;;;5075641;28;20209;-65
2022/09/07 06:23:44;;;;;;;3.17;2.33;;;16.80;99.90;;;;;;5075085;28;20234;-65
2022/09/07 06:26:13;;;;;;;3.00;2.20;;;16.80;99.90;;;;;;5075041;28;20569;-61
2022/09/07 06:28:42;;;;;;;2.80;2.30;;;16.90;99.90;;;;;;5075257;28;20248;-62
2022/09/07 06:31:10;;;;;;;3.03;2.30;;;16.90;99.90;;;;;;5075020;28;20255;-64
2022/09/07 06:33:37;;;;;;;4.73;2.53;;;16.90;99.90;;;;;;5065265;28;20212;-60
2022/09/07 06:36:05;;;;;;;3.07;2.37;;;16.90;99.90;;;;;;5073732;28;20275;-62
2022/09/07 06:38:34;;;;;;;4.80;2.70;;;16.90;99.90;;;;;;5074508;28;20209;-62
2022/09/07 06:41:01;;;;;;;3.10;2.20;;;17.00;99.90;;;;;;5074529;28;20204;-62
2022/09/07 06:43:30;;;;;;;3.27;2.60;;;17.00;99.90;;;;;;5074571;28;20215;-62
2022/09/07 06:45:57;;;;;;;4.57;2.40;;;17.10;99.90;;;;;;5073715;28;20250;-61
2022/09/07 06:48:24;;;;;;;6.27;3.77;;;17.20;99.90;;;;;;5074708;28;20259;-61
2022/09/07 06:50:59;;;;;;;3.33;2.37;;;17.20;99.90;;;;;;5074383;28;20209;-62
2022/09/07 06:53:26;;;;;;;3.50;2.30;;;17.30;99.90;;;;;;5073905;28;20204;-62
2022/09/07 06:55:53;;;;;;;3.07;2.30;;;17.40;99.90;;;;;;5074026;28;20266;-64
2022/09/07 06:58:19;;;;;;;3.80;2.10;;;17.50;99.90;;;;;;5073702;28;20209;-61
2022/09/07 07:00:47;;;;;;;3.53;2.37;;;17.60;99.90;;;;;;5074800;28;20216;-61
2022/09/07 07:03:14;;;;;;;3.00;2.07;;;17.60;99.90;;;;;;5072145;28;20753;-58
2022/09/07 07:05:41;;;;;;;2.73;2.47;;;17.70;99.90;;;;;;5074099;28;20228;-58
2022/09/07 07:08:07;;;;;;;3.53;2.53;;;17.70;99.90;;;;;;5073801;28;20228;-58
2022/09/07 07:10:37;;;;;;;2.80;2.50;;;17.80;99.90;;;;;;5074128;28;20211;-60
2022/09/07 07:13:04;;;;;;;4.30;2.40;;;17.90;99.90;;;;;;5073521;28;20205;-66
2022/09/07 07:15:31;;;;;;;4.63;2.70;;;18.00;99.90;;;;;;5073846;28;20702;-67
2022/09/07 07:17:59;;;;;;;5.37;2.80;;;18.00;99.90;;;;;;5074200;28;20242;-65
2022/09/07 07:20:26;;;;;;;3.30;2.67;;;18.10;99.90;;;;;;5073593;28;20248;-66
2022/09/07 07:22:53;;;;;;;3.60;3.07;;;18.10;99.90;;;;;;5073514;28;20209;-67
2022/09/07 07:25:20;;;;;;;3.47;2.70;;;18.10;99.90;;;;;;5073116;28;20274;-66
2022/09/07 07:27:47;;;;;;;4.17;3.37;;;18.10;99.90;;;;;;5073858;28;20209;-66
2022/09/07 07:30:14;;;;;;;4.03;3.43;;;18.30;99.90;;;;;;5073742;28;20632;-65
2022/09/07 07:32:42;;;;;;;7.60;3.70;;;18.40;99.90;;;;;;5073732;28;20201;-66
2022/09/07 07:35:10;;;;;;;6.00;3.50;;;18.50;99.90;;;;;;5073463;28;20233;-65
2022/09/07 07:37:38;;;;;;;3.90;2.80;;;18.70;99.90;;;;;;5073108;28;20212;-65
2022/09/07 07:40:05;;;;;;;4.50;2.83;;;18.80;99.90;;;;;;5073363;28;20254;-63
2022/09/07 07:42:32;;;;;;;3.83;2.80;;;18.90;99.90;;;;;;5073605;28;20300;-62
2022/09/07 07:44:59;;;;;;;3.57;2.70;;;19.10;99.90;;;;;;5073564;28;20225;-64
2022/09/07 07:47:26;;;;;;;4.83;2.60;;;19.30;99.90;;;;;;5072907;28;20251;-63
2022/09/07 07:49:53;;;;;;;5.23;2.80;;;19.40;99.90;;;;;;5073497;28;20735;-64
2022/09/07 07:52:21;;;;;;;5.50;2.50;;;19.30;99.90;;;;;;5073126;28;20643;-63
2022/09/07 07:54:48;;;;;;;6.00;2.30;;;19.40;99.90;;;;;;5073006;28;20583;-64
2022/09/07 07:57:15;;;;;;;3.27;2.20;;;19.50;99.90;;;;;;5073030;28;20287;-63
2022/09/07 07:59:42;;;;;;;7.17;2.13;;;19.70;99.90;;;;;;5073291;28;20233;-65
2022/09/07 08:02:14;;;;;;;3.17;2.10;;;19.80;99.90;;;;;;5072964;28;20209;-68
2022/09/07 08:04:41;;;;;;;4.00;2.10;;;19.90;99.90;;;;;;5072979;28;20221;-66
2022/09/07 08:07:10;;;;;;;4.90;2.00;;;19.90;30.30;;;;;;5073060;28;20258;-66
2022/09/07 08:09:39;;;;;;;4.97;1.63;;;20.00;97.30;;;;;;5072944;28;20296;-66
2022/09/07 08:12:06;;;;;;;2.90;1.40;;;20.10;99.90;;;;;;5073126;28;20622;-68
2022/09/07 08:14:35;;;;;;;3.77;1.70;;;20.20;22.80;;;;;;5068715;22;20234;-66
2022/09/07 08:17:02;;;;;;;4.20;1.90;;;20.30;1.00;;;;;;5032960;28;20229;-64
2022/09/07 08:19:28;;;;;;;4.30;1.70;;;20.30;1.00;;;;;;5032550;28;20206;-62
2022/09/07 08:21:55;;;;;;;4.00;1.80;;;20.30;1.00;;;;;;5032779;28;20279;-61
2022/09/07 08:24:22;;;;;;;2.60;2.00;;;20.20;1.00;;;;;;5032576;28;20631;-61
2022/09/07 08:26:50;;;;;;;2.27;1.70;;;20.10;1.00;;;;;;5032618;28;20737;-61
2022/09/07 08:29:16;;;;;;;3.83;2.30;;;20.00;1.00;;;;;;5032985;28;20206;-62
2022/09/07 08:31:43;;;;;;;4.03;2.40;;;20.00;1.00;;;;;;5032578;28;20210;-68
2022/09/07 08:34:10;;;;;;;3.93;2.50;;;19.90;1.00;;;;;;5032511;28;20226;-59
2022/09/07 08:36:37;;;;;;;5.10;2.63;;;19.90;1.00;;;;;;5031309;28;20280;-63
2022/09/07 08:39:04;;;;;;;6.73;2.80;;;19.90;1.00;;;;;;5033040;28;20206;-61
2022/09/07 08:41:57;;;;;;;6.57;3.87;;;20.00;1.00;;;;;;5032667;28;20210;-60
2022/09/07 08:44:28;;;;;;;4.97;3.33;;;20.30;1.00;;;;;;5032470;28;20226;-61
2022/09/07 08:46:59;;;;;;;4.43;3.40;;;20.50;1.00;;;;;;5032143;28;20542;-61
2022/09/07 08:49:32;;;;;;;5.37;3.70;;;20.60;1.00;;;;;;5032720;28;20232;-59
2022/09/07 08:52:03;;;;;;;4.73;3.53;;;20.70;1.00;;;;;;5038047;28;20206;-61
2022/09/07 08:54:30;;;;;;;6.77;4.30;;;20.60;1.00;;;;;;5039187;28;20317;-61
2022/09/07 08:57:02;;;;;;;5.07;3.43;;;20.60;1.00;;;;;;5035718;28;20290;-60
2022/09/07 08:59:40;;;;;;;5.97;4.27;;;20.60;1.00;;;;;;5031967;28;20633;-60
2022/09/07 09:02:13;;;;;;;6.43;4.20;;;20.60;1.00;;;;;;5032069;28;20673;-63
2022/09/07 09:04:41;;;;;;;5.33;4.10;;;20.70;1.00;;;;;;5031915;28;20234;-60
2022/09/07 09:07:21;;;;;;;4.73;4.20;;;20.80;1.00;;;;;;5031827;28;20589;-61
2022/09/07 09:10:21;;;;;;;5.13;3.70;;;20.90;1.00;;;;;;5031831;28;20191;-61
2022/09/07 09:13:06;;;;;;;3.93;3.50;;;20.90;99.90;;;;;;5031830;28;20747;-61
2022/09/07 09:15:48;;;;;;;7.60;4.67;;;21.00;99.90;;;;;;5031376;28;20241;-63
2022/09/07 09:18:28;;;;;;;5.87;4.10;;;21.00;99.90;;;;;;5031813;28;20214;-64
2022/09/07 09:20:56;;;;;;;4.57;3.50;;;21.00;99.90;;;;;;5032090;28;20631;-63
2022/09/07 09:23:26;;;;;;;7.13;3.83;;;21.00;99.90;;;;;;5031413;28;20754;-64
2022/09/07 09:25:54;;;;;;;5.43;3.97;;;21.10;1.00;;;;;;5031199;28;20230;-63
2022/09/07 09:28:23;;;;;;;5.87;4.10;;;21.30;1.00;;;;;;5031699;28;20206;-63
2022/09/07 09:30:50;;;;;;;6.70;4.00;;;21.30;99.90;;;;;;5031336;28;20203;-64
2022/09/07 09:33:19;;;;;;;4.47;3.60;;;21.40;99.90;;;;;;5031667;28;20264;-61
2022/09/07 09:35:49;;;;;;;4.37;3.20;;;21.50;99.90;;;;;;5031082;28;20631;-62
2022/09/07 09:38:31;;;;;;;4.50;3.63;;;21.50;99.90;;;;;;5031592;28;20211;-62
2022/09/07 09:41:00;;;;;;;5.10;3.17;;;21.60;1.00;;;;;;5031028;28;20206;-63
2022/09/07 09:43:33;;;;;;;5.10;2.90;;;21.50;99.90;;;;;;5031361;28;20206;-63
2022/09/07 09:46:01;;;;;;;4.53;3.23;;;21.50;1.00;;;;;;5031139;28;20226;-63
2022/09/07 09:48:33;;;;;;;3.87;2.47;;;21.40;1.00;;;;;;5031598;28;20627;-63
2022/09/07 09:51:01;;;;;;;4.73;2.73;;;21.40;99.90;;;;;;5031356;28;20221;-62
2022/09/07 09:53:32;;;;;;;5.30;2.57;;;21.40;99.90;;;;;;5030727;28;20214;-63
2022/09/07 09:56:00;;;;;;;5.20;2.80;;;21.30;99.90;;;;;;5031240;28;20230;-62
2022/09/07 09:58:31;;;;;;;4.53;2.73;;;21.50;99.90;;;;;;5031018;28;20260;-63
2022/09/07 10:01:01;;;;;;;4.50;2.40;;;21.60;99.90;;;;;;5031314;28;20214;-62
2022/09/07 10:03:29;;;;;;;5.40;2.80;;;21.70;1.00;;;;;;5030665;28;20225;-64
2022/09/07 10:05:57;;;;;;;4.23;2.37;;;21.70;1.00;;;;;;5030904;28;20264;-63
2022/09/07 10:08:25;;;;;;;2.50;2.30;;;21.70;1.00;;;;;;5031230;28;20206;-63
2022/09/07 10:10:58;;;;;;;4.40;2.63;;;21.60;99.90;;;;;;5031388;28;20206;-60
2022/09/07 10:13:30;;;;;;;3.67;2.40;;;21.70;1.00;;;;;;5030615;28;20214;-59
2022/09/07 10:15:59;;;;;;;4.10;2.13;;;21.90;99.90;;;;;;5030789;28;20265;-59
2022/09/07 10:18:33;;;;;;;4.83;1.77;;;22.00;99.90;;;;;;5029225;28;20209;-59
2022/09/07 10:21:23;;;;;;;3.63;2.10;;;22.20;99.90;;;;;;5004605;28;20207;-62
2022/09/07 10:23:54;;;;;;;2.50;1.93;;;22.40;1.00;;;;;;5011021;28;20214;-62
2022/09/07 10:26:32;;;;;;;4.13;2.43;;;22.30;99.90;;;;;;5010957;28;20207;-63
2022/09/07 10:29:14;;;;;;;2.57;2.13;;;22.10;99.90;;;;;;5010971;28;20269;-65
2022/09/07 10:32:10;;;;;;;2.27;1.60;;;22.00;99.90;;;;;;5011312;28;20211;-62
2022/09/07 10:34:50;;;;;;;5.13;2.60;;;22.10;1.00;;;;;;5004361;28;20602;-63
2022/09/07 10:37:30;;;;;;;3.87;2.60;;;22.30;99.90;;;;;;5010720;28;20268;-60
2022/09/07 10:40:09;;;;;;;3.43;2.87;;;22.50;1.00;;;;;;5011238;28;20210;-60
2022/09/07 10:42:42;;;;;;;3.47;2.67;;;22.50;99.90;;;;;;5010924;28;20261;-60
2022/09/07 10:45:19;;;;;;;3.77;2.23;;;22.30;99.90;;;;;;5009538;28;20227;-60
2022/09/07 10:47:57;;;;;;;3.50;1.93;;;22.30;99.90;;;;;;5010717;28;20299;-62
2022/09/07 10:50:31;;;;;;;2.97;1.80;;;22.40;99.90;;;;;;5011499;28;20585;-63
2022/09/07 10:53:16;;;;;;;1.60;1.33;;;22.50;99.90;;;;;;5010693;28;20234;-63
2022/09/07 10:55:53;;;;;;;1.77;1.60;;;22.60;1.00;;;;;;5010691;28;20289;-61
2022/09/07 10:58:26;;;;;;;3.80;1.83;;;22.70;12.20;;;;;;5011500;28;20215;-61
2022/09/07 11:01:05;;;;;;;1.83;1.40;;;22.80;99.90;;;;;;5014384;28;20213;-67
2022/09/07 11:06:20;;;;;;;1.97;1.40;;;23.00;99.90;;;;;;5096214;22;20252;-66
2022/09/07 11:09:06;;;;;;;2.93;1.40;;;23.00;26.30;;;;;;5074295;28;20254;-65
2022/09/07 11:11:37;;;;;;;4.63;1.50;;;23.10;1.00;;;;;;5074079;28;20205;-66
2022/09/07 11:14:09;;;;;;;3.80;1.43;;;23.20;1.00;;;;;;5071315;28;20205;-63
2022/09/07 11:16:45;;;;;;;2.23;1.40;;;23.30;1.00;;;;;;5053888;28;20218;-63
2022/09/07 11:19:17;;;;;;;3.10;1.67;;;23.10;1.00;;;;;;5054031;28;20205;-62
2022/09/07 11:21:57;;;;;;;3.13;1.80;;;23.10;1.00;;;;;;5053962;28;20664;-64
2022/09/07 11:24:30;;;;;;;3.10;2.20;;;23.10;1.00;;;;;;5053159;28;20781;-63
2022/09/07 11:27:01;;;;;;;2.17;1.50;;;23.20;1.00;;;;;;5053896;28;20252;-63
2022/09/07 11:29:34;;;;;;;2.40;1.77;;;23.10;1.00;;;;;;5053915;28;20213;-66
2022/09/07 11:32:27;;;;;;;3.83;1.90;;;23.20;1.00;;;;;;5053924;28;20214;-66
2022/09/07 11:34:58;;;;;;;2.13;1.70;;;22.90;1.00;;;;;;5053684;28;20265;-63
2022/09/07 11:37:29;;;;;;;3.50;1.70;;;22.80;1.00;;;;;;5052996;28;20218;-63
2022/09/07 11:40:03;;;;;;;2.87;1.50;;;23.00;1.00;;;;;;5053629;28;20263;-63
2022/09/07 11:42:33;;;;;;;2.70;1.63;;;23.10;1.00;;;;;;5053373;28;20216;-63
2022/09/07 11:45:05;;;;;;;2.10;1.80;;;23.00;99.90;;;;;;5053302;28;20233;-64
2022/09/07 11:47:39;;;;;;;2.93;1.70;;;22.90;99.90;;;;;;5052807;28;20206;-66
2022/09/07 11:50:15;;;;;;;3.30;1.90;;;22.80;1.00;;;;;;5046258;28;20206;-67
2022/09/07 11:52:45;;;;;;;2.90;1.80;;;22.80;1.00;;;;;;5052016;28;20745;-65
2022/09/07 11:55:19;;;;;;;3.67;2.17;;;22.70;99.90;;;;;;5053239;28;20268;-65
2022/09/07 11:58:17;;;;;;;3.37;2.00;;;22.60;1.00;;;;;;5052930;28;20251;-62
2022/09/07 12:00:52;;;;;;;4.10;1.80;;;22.60;1.00;;;;;;5053175;28;20260;-63
2022/09/07 12:03:36;;;;;;;3.63;2.17;;;22.60;99.90;;;;;;5052977;28;20213;-64
2022/09/07 12:06:22;;;;;;;2.47;1.50;;;22.80;1.00;;;;;;5052879;28;20291;-63
2022/09/07 12:09:13;;;;;;;1.33;1.13;;;22.80;99.90;;;;;;5052744;28;20263;-62
2022/09/07 12:12:11;;;;;;;4.80;1.80;;;23.00;99.90;;;;;;5051914;28;20569;-65
2022/09/07 12:14:50;;;;;;;5.93;1.60;;;23.20;99.90;;;;;;5052007;28;20225;-63
2022/09/07 12:17:37;;;;;;;3.50;1.80;;;23.40;99.90;;;;;;5052798;28;20213;-62
2022/09/07 12:20:16;;;;;;;4.63;1.63;;;23.20;99.90;;;;;;5052630;28;20260;-66
2022/09/07 12:23:03;;;;;;;3.67;1.60;;;22.90;99.90;;;;;;5052907;28;20684;-62
2022/09/07 12:25:30;;;;;;;3.60;1.43;;;22.90;99.90;;;;;;5052048;28;20240;-60
2022/09/07 12:27:57;;;;;;;4.87;1.70;;;22.90;99.90;;;;;;5052717;28;20206;-63
2022/09/07 12:30:53;;;;;;;3.30;1.90;;;23.00;99.90;;;;;;5052858;28;20253;-63
2022/09/07 12:33:23;;;;;;;3.43;1.70;;;23.00;99.90;;;;;;5052910;28;20202;-63
2022/09/07 12:35:53;;;;;;;3.10;1.73;;;23.10;99.90;;;;;;5052258;28;20237;-62
2022/09/07 12:39:04;;;;;;;5.00;1.70;;;23.10;99.90;;;;;;5053194;28;20209;-62
2022/09/07 12:41:44;;;;;;;3.10;1.67;;;23.10;99.90;;;;;;5042081;28;20283;-62
2022/09/07 12:44:23;;;;;;;3.43;2.07;;;23.10;99.90;;;;;;5051957;28;20221;-62
2022/09/07 12:46:58;;;;;;;5.47;2.50;;;23.10;99.90;;;;;;5052086;28;20307;-62
2022/09/07 12:49:45;;;;;;;2.57;2.00;;;23.10;99.90;;;;;;5052572;28;20255;-62
2022/09/07 12:52:45;;;;;;;4.87;1.90;;;22.90;99.90;;;;;;5052304;28;20259;-63
2022/09/07 12:55:27;;;;;;;4.53;2.30;;;22.90;99.90;;;;;;5047916;28;20308;-66
2022/09/07 12:58:04;;;;;;;3.90;2.43;;;22.80;99.90;;;;;;5052025;28;20234;-64
2022/09/07 13:00:38;;;;;;;2.87;2.30;;;22.70;99.90;;;;;;5052037;28;20213;-63
2022/09/07 13:03:29;;;;;;;3.40;2.20;;;22.80;99.90;;;;;;5051610;28;20209;-59
2022/09/07 13:06:06;;;;;;;2.73;2.27;;;22.90;99.90;;;;;;5051686;28;20312;-60
2022/09/07 13:08:47;;;;;;;3.60;2.23;;;22.90;99.90;;;;;;5051796;28;20209;-61
2022/09/07 13:11:31;;;;;;;5.23;2.93;;;23.00;99.90;;;;;;5051744;28;20255;-62
2022/09/07 13:14:00;;;;;;;4.93;3.03;;;23.20;99.90;;;;;;5051384;28;20711;-64